createdAt,value
2022-10-07T00:00:51.985Z,2.65
2022-10-07T00:03:20.094Z,2.75
2022-10-07T00:05:46.786Z,2.63
2022-10-07T00:08:13.440Z,2.90
2022-10-07T00:10:44.026Z,2.30
2022-10-07T00:13:12.217Z,2.35
2022-10-07T00:15:39.191Z,2.47
2022-10-07T00:18:06.120Z,2.58
2022-10-07T00:20:38.493Z,3.00
2022-10-07T00:23:06.534Z,3.15
2022-10-07T00:25:36.861Z,3.35
2022-10-07T00:28:04.909Z,3.85
2022-10-07T00:30:31.884Z,4.40
2022-10-07T00:32:58.467Z,7.57
2022-10-07T00:35:24.970Z,6.50
2022-10-07T00:37:51.403Z,7.43
2022-10-07T00:40:18.031Z,7.72
2022-10-07T00:42:44.488Z,8.52
2022-10-07T00:45:16.261Z,7.55
2022-10-07T00:47:48.339Z,7.72
2022-10-07T00:50:22.406Z,6.60
2022-10-07T00:52:56.568Z,7.50
2022-10-07T00:55:26.237Z,5.68
2022-10-07T00:57:55.237Z,5.93
2022-10-07T01:00:24.091Z,6.25
2022-10-07T01:02:51.439Z,6.32
2022-10-07T01:05:19.054Z,6.50
2022-10-07T01:07:47.524Z,5.90
2022-10-07T01:10:18.768Z,6.10
2022-10-07T01:13:05.213Z,8.20
2022-10-07T01:15:37.555Z,8.05
2022-10-07T01:18:18.287Z,7.72
2022-10-07T01:20:59.602Z,8.13
2022-10-07T01:23:38.291Z,7.63
2022-10-07T01:26:22.167Z,6.28
2022-10-07T01:29:12.512Z,6.40
2022-10-07T01:31:46.917Z,5.97
2022-10-07T01:34:14.730Z,4.90
2022-10-07T01:36:42.999Z,3.30
2022-10-07T01:39:14.137Z,3.03
2022-10-07T01:41:41.413Z,2.40
2022-10-07T01:44:10.076Z,2.90
2022-10-07T01:46:38.034Z,2.70
2022-10-07T01:49:05.786Z,2.60
2022-10-07T01:54:34.544Z,3.25
2022-10-07T01:57:11.279Z,2.83
2022-10-07T01:59:37.704Z,3.47
2022-10-07T02:02:22.100Z,2.60
2022-10-07T02:05:09.702Z,2.70
2022-10-07T02:07:52.226Z,2.80
2022-10-07T02:10:31.783Z,2.78
2022-10-07T02:13:13.422Z,3.17
2022-10-07T02:16:05.528Z,2.97
2022-10-07T02:18:34.483Z,2.58
2022-10-07T02:21:05.050Z,2.58
2022-10-07T02:23:34.324Z,4.10
2022-10-07T02:26:04.137Z,3.28
2022-10-07T02:28:32.093Z,3.13
2022-10-07T02:31:01.769Z,3.15
2022-10-07T02:33:29.861Z,4.03
2022-10-07T02:36:02.346Z,3.08
2022-10-07T02:38:29.711Z,3.38
2022-10-07T02:41:11.660Z,3.05
2022-10-07T02:43:47.352Z,2.90
2022-10-07T02:46:18.855Z,2.63
2022-10-07T02:48:50.306Z,2.78
2022-10-07T02:51:21.421Z,2.75
2022-10-07T02:53:51.370Z,2.30
2022-10-07T02:56:21.006Z,2.53
2022-10-07T02:58:48.546Z,2.42
2022-10-07T03:01:22.921Z,2.90
2022-10-07T03:03:49.427Z,2.90
2022-10-07T03:06:19.275Z,2.67
2022-10-07T03:08:48.114Z,2.83
2022-10-07T03:11:14.682Z,3.17
2022-10-07T03:13:41.205Z,2.28
2022-10-07T03:16:07.752Z,2.53
2022-10-07T03:18:34.501Z,2.55
2022-10-07T03:21:01.026Z,2.70
2022-10-07T03:23:29.232Z,2.88
2022-10-07T03:25:58.157Z,2.33
2022-10-07T03:28:26.520Z,2.50
2022-10-07T03:30:53.746Z,2.42
2022-10-07T03:33:25.713Z,2.50
2022-10-07T03:35:52.133Z,2.42
2022-10-07T03:38:18.576Z,2.35
2022-10-07T03:40:45.071Z,2.40
2022-10-07T03:43:11.519Z,2.08
2022-10-07T03:45:44.345Z,2.50
2022-10-07T03:48:11.228Z,2.15
2022-10-07T03:50:38.280Z,2.35
2022-10-07T03:53:05.062Z,2.50
2022-10-07T03:55:31.626Z,2.60
2022-10-07T03:57:59.748Z,2.35
2022-10-07T04:00:27.505Z,2.22
2022-10-07T04:05:21.493Z,2.30
2022-10-07T04:07:49.948Z,2.70
2022-10-07T04:10:18.496Z,2.45
2022-10-07T04:12:45.586Z,2.17
2022-10-07T04:15:14.969Z,2.30
2022-10-07T04:17:42.307Z,2.33
2022-10-07T04:20:10.100Z,2.30
2022-10-07T04:22:36.804Z,2.70
2022-10-07T04:25:22.979Z,2.50
2022-10-07T04:27:56.003Z,2.40
2022-10-07T04:30:24.469Z,2.40
2022-10-07T04:32:51.446Z,2.00
2022-10-07T04:35:20.089Z,2.42
2022-10-07T04:37:53.454Z,2.20
2022-10-07T04:40:21.285Z,2.08
2022-10-07T04:43:06.889Z,2.30
2022-10-07T04:45:35.471Z,2.42
2022-10-07T04:48:04.103Z,2.28
2022-10-07T04:50:30.533Z,2.50
2022-10-07T04:52:57.149Z,2.50
2022-10-07T04:55:23.540Z,2.75
2022-10-07T04:57:50.020Z,2.15
2022-10-07T05:00:16.603Z,3.03
2022-10-07T05:02:46.405Z,3.03
2022-10-07T05:05:12.838Z,4.80
2022-10-07T05:07:39.222Z,4.72
2022-10-07T05:10:06.201Z,5.55
2022-10-07T05:12:32.609Z,6.13
2022-10-07T05:14:59.252Z,6.47
2022-10-07T05:17:25.775Z,6.87
2022-10-07T05:19:52.168Z,6.93
2022-10-07T05:22:18.590Z,8.23
2022-10-07T05:24:44.955Z,9.20
2022-10-07T05:27:13.393Z,7.95
2022-10-07T05:29:40.678Z,8.90
2022-10-07T05:32:07.377Z,8.48
2022-10-07T05:34:33.909Z,8.07
2022-10-07T05:37:00.444Z,7.72
2022-10-07T05:39:27.249Z,8.40
2022-10-07T05:41:53.736Z,8.30
2022-10-07T05:47:01.963Z,8.30
2022-10-07T05:49:28.650Z,8.02
2022-10-07T05:51:55.058Z,7.23
2022-10-07T05:54:22.514Z,7.28
2022-10-07T05:56:49.400Z,7.40
2022-10-07T05:59:15.794Z,7.15
2022-10-07T06:01:42.997Z,6.88
2022-10-07T06:04:09.446Z,6.95
2022-10-07T06:06:36.452Z,6.50
2022-10-07T06:09:21.417Z,6.32
2022-10-07T06:12:07.689Z,5.60
2022-10-07T06:14:34.114Z,6.83
2022-10-07T06:17:00.560Z,5.90
2022-10-07T06:19:27.235Z,5.47
2022-10-07T06:21:53.684Z,7.23
2022-10-07T06:24:20.265Z,5.90
2022-10-07T06:26:46.703Z,5.47
2022-10-07T06:29:13.169Z,6.57
2022-10-07T06:31:39.660Z,5.63
2022-10-07T06:34:06.142Z,5.70
2022-10-07T06:36:32.530Z,4.88
2022-10-07T06:38:58.915Z,5.72
2022-10-07T06:41:25.869Z,4.40
2022-10-07T06:43:57.210Z,3.90
2022-10-07T06:46:23.798Z,3.67
2022-10-07T06:48:50.365Z,3.30
2022-10-07T06:51:19.960Z,3.50
2022-10-07T06:53:51.557Z,3.30
2022-10-07T06:56:18.087Z,3.03
2022-10-07T06:58:44.627Z,3.00
2022-10-07T07:01:12.887Z,2.90
2022-10-07T07:03:40.593Z,3.15
2022-10-07T07:06:08.470Z,3.05
2022-10-07T07:08:35.349Z,3.10
2022-10-07T07:11:38.253Z,2.83
2022-10-07T07:14:08.070Z,3.38
2022-10-07T07:16:35.574Z,3.08
2022-10-07T07:19:08.595Z,3.28
2022-10-07T07:21:38.147Z,2.95
2022-10-07T07:24:06.183Z,3.35
2022-10-07T07:26:32.581Z,2.90
2022-10-07T07:29:07.292Z,2.63
2022-10-07T07:31:38.871Z,3.20
2022-10-07T07:34:08.709Z,3.53
2022-10-07T07:36:36.319Z,3.30
2022-10-07T07:39:07.059Z,3.47
2022-10-07T07:41:36.618Z,3.17
2022-10-07T07:44:05.335Z,3.10
2022-10-07T07:46:40.794Z,3.40
2022-10-07T07:49:10.401Z,3.08
2022-10-07T07:51:37.422Z,3.08
2022-10-07T07:54:04.437Z,3.17
2022-10-07T07:56:33.812Z,2.92
2022-10-07T07:59:02.505Z,3.05
2022-10-07T08:01:32.027Z,3.13
2022-10-07T08:03:59.307Z,3.28
2022-10-07T08:06:27.939Z,2.85
2022-10-07T08:08:57.358Z,3.72
2022-10-07T08:11:24.302Z,3.50
2022-10-07T08:13:51.563Z,3.30
2022-10-07T08:16:20.655Z,3.60
2022-10-07T08:18:49.312Z,3.20
2022-10-07T08:21:18.414Z,3.20
2022-10-07T08:23:45.131Z,3.00
2022-10-07T08:26:11.680Z,3.15
2022-10-07T08:28:39.146Z,2.80
2022-10-07T08:31:11.636Z,2.50
2022-10-07T08:33:40.703Z,2.08
2022-10-07T08:36:08.798Z,2.30
2022-10-07T08:38:37.217Z,2.30
2022-10-07T08:41:09.962Z,2.13
2022-10-07T08:43:45.151Z,1.80
2022-10-07T08:46:17.553Z,1.63
2022-10-07T08:48:52.174Z,1.50
2022-10-07T08:51:24.519Z,1.60
2022-10-07T08:53:56.278Z,1.50
2022-10-07T08:56:24.541Z,1.40
2022-10-07T08:59:06.217Z,1.45
2022-10-07T09:01:41.708Z,1.63
2022-10-07T09:04:33.132Z,1.60
2022-10-07T09:07:13.339Z,1.73
2022-10-07T09:09:46.739Z,1.40
2022-10-07T09:12:23.226Z,1.35
2022-10-07T09:14:54.786Z,1.50
2022-10-07T09:17:35.078Z,1.35
2022-10-07T09:20:11.729Z,1.30
2022-10-07T09:22:39.723Z,1.73
2022-10-07T09:25:13.396Z,1.55
2022-10-07T09:27:39.932Z,1.27
2022-10-07T09:30:07.058Z,1.40
2022-10-07T09:32:40.300Z,1.40
2022-10-07T09:35:07.064Z,1.20
2022-10-07T09:37:34.106Z,1.20
2022-10-07T09:40:22.026Z,1.00
2022-10-07T09:42:49.735Z,1.38
2022-10-07T09:45:23.075Z,1.52
2022-10-07T09:47:55.482Z,1.10
2022-10-07T09:50:34.185Z,1.50
2022-10-07T09:53:01.803Z,1.30
2022-10-07T09:55:37.854Z,1.50
2022-10-07T09:58:25.405Z,1.48
2022-10-07T10:00:54.458Z,1.25
2022-10-07T10:03:28.079Z,1.15
2022-10-07T10:05:59.743Z,1.38
2022-10-07T10:08:32.425Z,1.50
2022-10-07T10:11:01.610Z,1.42
2022-10-07T10:13:36.843Z,1.33
2022-10-07T10:16:06.634Z,1.40
2022-10-07T10:18:37.611Z,1.40
2022-10-07T10:21:29.866Z,1.52
2022-10-07T10:24:03.749Z,1.30
2022-10-07T10:26:54.979Z,1.50
2022-10-07T10:29:49.524Z,1.60
2022-10-07T10:32:42.373Z,1.30
2022-10-07T10:35:14.733Z,1.70
2022-10-07T10:37:41.478Z,1.70
2022-10-07T10:40:23.104Z,1.93
2022-10-07T10:43:30.948Z,1.80
2022-10-07T10:46:05.559Z,1.55
2022-10-07T10:48:44.456Z,1.67
2022-10-07T10:51:17.059Z,1.52
2022-10-07T10:53:52.241Z,1.70
2022-10-07T10:56:58.321Z,1.70
2022-10-07T10:59:33.468Z,1.30
2022-10-07T11:02:29.468Z,1.10
2022-10-07T11:05:08.790Z,1.70
2022-10-07T11:07:50.989Z,1.85
2022-10-07T11:10:24.120Z,1.52
2022-10-07T11:12:58.066Z,1.48
2022-10-07T11:15:24.488Z,1.70
2022-10-07T11:17:54.611Z,1.50
2022-10-07T11:20:32.365Z,1.67
2022-10-07T11:23:05.466Z,1.88
2022-10-07T11:25:38.861Z,1.80
2022-10-07T11:28:19.515Z,1.80
2022-10-07T11:30:58.019Z,1.50
2022-10-07T11:33:32.539Z,1.70
2022-10-07T11:36:13.832Z,1.50
2022-10-07T11:38:42.085Z,1.50
2022-10-07T11:41:31.564Z,1.77
2022-10-07T11:44:04.580Z,1.55
2022-10-07T11:46:36.163Z,1.52
2022-10-07T11:49:15.762Z,1.50
2022-10-07T11:51:57.680Z,1.67
2022-10-07T11:54:27.509Z,1.70
2022-10-07T11:56:58.378Z,1.60
2022-10-07T11:59:51.003Z,1.70
2022-10-07T12:02:29.610Z,1.30
2022-10-07T12:04:57.559Z,1.60
2022-10-07T12:07:42.259Z,1.40
2022-10-07T12:10:18.319Z,1.30
2022-10-07T12:12:45.561Z,1.67
2022-10-07T12:15:40.036Z,1.30
2022-10-07T12:18:06.395Z,1.60
2022-10-07T12:20:51.180Z,1.50
2022-10-07T12:23:20.619Z,1.50
2022-10-07T12:25:59.500Z,1.50
2022-10-07T12:28:48.707Z,1.63
2022-10-07T12:31:15.259Z,1.35
2022-10-07T12:34:10.031Z,1.63
2022-10-07T12:36:41.961Z,1.52
2022-10-07T12:39:09.665Z,1.50
2022-10-07T12:41:39.720Z,1.60
2022-10-07T12:44:35.563Z,1.30
2022-10-07T12:47:08.320Z,1.65
2022-10-07T12:49:45.560Z,1.65
2022-10-07T12:52:20.080Z,1.70
2022-10-07T12:54:53.795Z,1.50
2022-10-07T12:57:23.286Z,1.73
2022-10-07T12:59:55.595Z,1.70
2022-10-07T13:03:03.390Z,1.75
2022-10-07T13:05:35.779Z,1.70
2022-10-07T13:08:33.848Z,1.40
2022-10-07T13:11:18.190Z,1.60
2022-10-07T13:13:50.326Z,1.60
2022-10-07T13:16:27.494Z,1.60
2022-10-07T13:19:03.953Z,1.50
2022-10-07T13:21:39.561Z,1.65
2022-10-07T13:24:06.180Z,2.00
2022-10-07T13:26:33.342Z,1.70
2022-10-07T13:29:01.194Z,1.45
2022-10-07T13:31:30.706Z,1.70
2022-10-07T13:33:59.275Z,1.50
2022-10-07T13:36:28.449Z,1.70
2022-10-07T13:39:12.453Z,1.55
2022-10-07T13:41:43.928Z,1.50
2022-10-07T13:44:14.340Z,1.70
2022-10-07T13:46:53.129Z,1.63
2022-10-07T13:49:26.882Z,1.40
2022-10-07T13:51:59.355Z,1.48
2022-10-07T13:54:29.458Z,1.55
2022-10-07T13:56:56.463Z,1.45
2022-10-07T13:59:23.713Z,1.42
2022-10-07T14:04:26.727Z,1.50
2022-10-07T14:07:12.628Z,1.50
2022-10-07T14:09:48.320Z,1.40
2022-10-07T14:12:20.355Z,1.60
2022-10-07T14:14:49.841Z,1.70
2022-10-07T14:17:28.459Z,1.40
2022-10-07T14:19:59.543Z,1.90
2022-10-07T14:22:33.779Z,1.60
2022-10-07T14:25:02.275Z,1.40
2022-10-07T14:27:54.126Z,1.65
2022-10-07T14:30:59.565Z,1.60
2022-10-07T14:33:47.238Z,1.60
2022-10-07T14:36:15.792Z,1.42
2022-10-07T14:38:44.122Z,1.70
2022-10-07T14:41:11.304Z,1.60
2022-10-07T14:43:40.135Z,1.65
2022-10-07T14:46:08.172Z,1.70
2022-10-07T14:48:35.001Z,1.63
2022-10-07T14:51:01.689Z,1.60
2022-10-07T14:53:28.583Z,1.40
2022-10-07T14:55:55.883Z,1.52
2022-10-07T15:00:49.526Z,1.70
2022-10-07T15:05:42.415Z,1.60
2022-10-07T15:08:11.741Z,1.70
2022-10-07T15:10:41.191Z,1.35
2022-10-07T15:13:13.278Z,1.40
2022-10-07T15:15:44.621Z,1.45
2022-10-07T15:18:12.250Z,1.52
2022-10-07T15:20:40.072Z,1.30
2022-10-07T15:23:07.927Z,1.25
2022-10-07T15:25:35.621Z,1.40
2022-10-07T15:28:02.581Z,1.30
2022-10-07T15:30:29.726Z,1.55
2022-10-07T15:32:57.737Z,1.42
2022-10-07T15:35:25.588Z,1.27
2022-10-07T15:37:52.739Z,1.38
2022-10-07T15:40:19.347Z,1.23
2022-10-07T15:42:45.925Z,1.45
2022-10-07T15:45:12.810Z,1.35
2022-10-07T15:47:39.475Z,1.40
2022-10-07T15:50:06.987Z,1.52
2022-10-07T15:52:33.487Z,1.50
2022-10-07T15:55:02.652Z,1.60
2022-10-07T15:57:33.083Z,1.63
2022-10-07T15:59:59.644Z,1.77
2022-10-07T16:02:26.220Z,1.92
2022-10-07T16:04:52.694Z,2.40
2022-10-07T16:07:19.091Z,1.77
2022-10-07T16:09:45.553Z,2.35
2022-10-07T16:12:12.915Z,4.17
2022-10-07T16:17:05.656Z,4.90
2022-10-07T16:19:32.042Z,5.75
2022-10-07T16:21:58.499Z,5.83
2022-10-07T16:24:24.951Z,4.20
2022-10-07T16:26:51.514Z,5.05
2022-10-07T16:29:41.238Z,4.68
2022-10-07T16:32:10.718Z,9.30
2022-10-07T16:34:39.113Z,5.70
2022-10-07T16:37:06.075Z,5.28
2022-10-07T16:39:32.662Z,6.25
2022-10-07T16:41:59.909Z,7.00
2022-10-07T16:44:26.896Z,6.47
2022-10-07T16:46:56.907Z,6.22
2022-10-07T16:49:25.779Z,23.27
2022-10-07T16:51:53.022Z,27.08
2022-10-07T16:54:19.963Z,25.40
2022-10-07T16:56:50.067Z,26.65
2022-10-07T16:59:23.724Z,16.80
2022-10-07T17:01:53.147Z,7.47
2022-10-07T17:04:20.131Z,6.18
2022-10-07T17:06:47.797Z,8.32
2022-10-07T17:09:14.576Z,7.63
2022-10-07T17:11:41.802Z,13.77
2022-10-07T17:14:11.169Z,15.40
2022-10-07T17:16:42.196Z,10.40
2022-10-07T17:19:11.969Z,9.18
2022-10-07T17:21:40.135Z,12.70
2022-10-07T17:24:06.631Z,60.40
2022-10-07T17:26:33.410Z,70.87
2022-10-07T17:29:02.536Z,76.18
2022-10-07T17:31:30.849Z,87.63
2022-10-07T17:33:58.635Z,88.07
2022-10-07T17:36:26.206Z,72.57
2022-10-07T17:38:52.991Z,20.45
2022-10-07T17:41:28.654Z,22.10
2022-10-07T17:43:57.419Z,14.63
2022-10-07T17:46:26.073Z,19.52
2022-10-07T17:48:54.670Z,13.85
2022-10-07T17:51:22.479Z,12.52
2022-10-07T17:53:50.367Z,7.70
2022-10-07T17:56:17.221Z,6.82
2022-10-07T17:58:45.562Z,8.30
2022-10-07T18:01:15.267Z,8.57
2022-10-07T18:03:42.712Z,11.80
2022-10-07T18:08:40.566Z,13.18
2022-10-07T18:11:07.410Z,80.93
2022-10-07T18:13:52.775Z,42.00
2022-10-07T18:16:20.759Z,24.70
2022-10-07T18:18:52.812Z,18.80
2022-10-07T18:21:20.614Z,21.95
2022-10-07T18:23:47.066Z,18.17
2022-10-07T18:26:13.684Z,19.48
2022-10-07T18:28:40.669Z,11.63
2022-10-07T18:31:11.759Z,13.35
2022-10-07T18:33:38.829Z,11.88
2022-10-07T18:36:11.165Z,11.40
2022-10-07T18:38:40.742Z,11.35
2022-10-07T18:41:12.944Z,13.00
2022-10-07T18:43:40.274Z,12.00
2022-10-07T18:46:10.426Z,10.45
2022-10-07T18:48:39.107Z,9.93
2022-10-07T18:51:06.348Z,10.55
2022-10-07T18:53:35.479Z,10.60
2022-10-07T18:56:06.724Z,10.60
2022-10-07T18:58:37.749Z,9.55
2022-10-07T19:01:14.153Z,10.48
2022-10-07T19:03:40.954Z,18.17
2022-10-07T19:06:20.275Z,11.55
2022-10-07T19:08:47.025Z,13.48
2022-10-07T19:11:16.563Z,12.07
2022-10-07T19:13:56.123Z,11.43
2022-10-07T19:16:37.449Z,12.90
2022-10-07T19:19:06.658Z,12.52
2022-10-07T19:21:34.346Z,13.30
2022-10-07T19:24:02.280Z,12.15
2022-10-07T19:26:49.924Z,11.80
2022-10-07T19:29:17.881Z,13.07
2022-10-07T19:31:48.556Z,19.13
2022-10-07T19:34:21.183Z,71.10
2022-10-07T19:36:48.904Z,75.40
2022-10-07T19:39:21.055Z,76.43
2022-10-07T19:41:48.231Z,66.80
2022-10-07T19:44:15.326Z,73.78
2022-10-07T19:46:41.742Z,84.38
2022-10-07T19:49:09.349Z,76.47
2022-10-07T19:51:37.283Z,68.78
2022-10-07T19:54:12.995Z,64.88
2022-10-07T19:56:40.649Z,46.95
2022-10-07T19:59:09.747Z,44.40
2022-10-07T20:01:42.075Z,35.63
2022-10-07T20:04:15.419Z,31.67
2022-10-07T20:06:42.285Z,31.75
2022-10-07T20:09:12.017Z,32.90
2022-10-07T20:11:38.478Z,29.83
2022-10-07T20:14:05.964Z,28.13
2022-10-07T20:19:07.843Z,27.63
2022-10-07T20:21:36.775Z,31.55
2022-10-07T20:24:04.579Z,27.17
2022-10-07T20:26:33.984Z,26.42
2022-10-07T20:29:02.485Z,23.88
2022-10-07T20:31:31.790Z,24.42
2022-10-07T20:33:59.817Z,23.10
2022-10-07T20:36:28.842Z,18.27
2022-10-07T20:39:14.971Z,19.70
2022-10-07T20:41:59.873Z,16.98
2022-10-07T20:44:26.670Z,15.38
2022-10-07T20:46:53.147Z,14.93
2022-10-07T20:49:23.125Z,14.55
2022-10-07T20:51:54.368Z,14.73
2022-10-07T20:54:22.749Z,13.68
2022-10-07T20:56:51.857Z,13.70
2022-10-07T20:59:18.425Z,13.00
2022-10-07T21:01:45.270Z,13.23
2022-10-07T21:04:14.470Z,14.55
2022-10-07T21:06:41.415Z,14.43
2022-10-07T21:09:08.677Z,13.48
2022-10-07T21:11:35.463Z,13.95
2022-10-07T21:14:02.121Z,13.57
2022-10-07T21:16:30.468Z,13.52
2022-10-07T21:18:57.130Z,13.48
2022-10-07T21:21:24.569Z,14.03
2022-10-07T21:23:51.552Z,12.52
2022-10-07T21:26:19.534Z,12.55
2022-10-07T21:28:48.242Z,13.25
2022-10-07T21:31:17.448Z,13.35
2022-10-07T21:33:46.334Z,13.38
2022-10-07T21:36:17.648Z,13.18
2022-10-07T21:38:45.061Z,13.48
2022-10-07T21:41:13.107Z,11.90
2022-10-07T21:43:40.229Z,13.15
2022-10-07T21:46:07.119Z,12.07
2022-10-07T21:48:33.777Z,12.85
2022-10-07T21:51:04.580Z,12.07
2022-10-07T21:53:33.697Z,12.60
2022-10-07T21:56:04.888Z,12.85
2022-10-07T21:58:32.845Z,13.07
2022-10-07T22:01:07.363Z,11.95
2022-10-07T22:03:34.489Z,12.20
2022-10-07T22:06:05.959Z,11.80
2022-10-07T22:08:36.450Z,12.05
2022-10-07T22:11:14.741Z,11.75
2022-10-07T22:13:53.254Z,12.23
2022-10-07T22:16:19.947Z,12.45
2022-10-07T22:18:51.468Z,11.73
2022-10-07T22:21:26.275Z,11.77
2022-10-07T22:23:55.375Z,11.80
2022-10-07T22:26:25.930Z,11.98
2022-10-07T22:28:52.730Z,12.02
2022-10-07T22:31:20.235Z,11.88
2022-10-07T22:36:17.226Z,11.85
2022-10-07T22:38:43.617Z,11.50
2022-10-07T22:41:14.029Z,11.20
2022-10-07T22:43:44.212Z,11.85
2022-10-07T22:46:16.945Z,11.48
2022-10-07T22:48:43.714Z,11.65
2022-10-07T22:51:12.174Z,11.90
2022-10-07T22:53:40.914Z,11.43
2022-10-07T22:56:13.168Z,11.50
2022-10-07T22:58:41.793Z,11.30
2022-10-07T23:01:13.694Z,11.52
2022-10-07T23:03:43.864Z,11.70
2022-10-07T23:06:18.626Z,11.70
2022-10-07T23:08:46.876Z,11.40
2022-10-07T23:11:18.990Z,12.27
2022-10-07T23:13:48.257Z,11.68
2022-10-07T23:16:18.047Z,11.40
2022-10-07T23:18:46.226Z,12.15
2022-10-07T23:21:18.849Z,11.23
2022-10-07T23:23:47.491Z,12.10
2022-10-07T23:26:19.566Z,12.13
2022-10-07T23:28:53.583Z,10.85
2022-10-07T23:31:22.013Z,12.57
2022-10-07T23:33:52.066Z,11.95
2022-10-07T23:36:20.435Z,11.80
2022-10-07T23:38:48.785Z,11.70
2022-10-07T23:41:17.897Z,11.85
2022-10-07T23:43:44.499Z,11.30
2022-10-07T23:46:13.451Z,13.20
2022-10-07T23:48:41.103Z,12.40
2022-10-07T23:53:35.159Z,12.75
2022-10-07T23:56:02.371Z,12.73
2022-10-07T23:58:34.030Z,11.90
